createdAt,value
2023-01-19T01:24:01.837Z,9.01
2023-01-19T01:26:31.074Z,8.82
2023-01-19T01:29:00.150Z,8.70
2023-01-19T01:31:29.330Z,8.66
2023-01-19T01:33:58.486Z,8.81
2023-01-19T01:36:31.909Z,8.94
2023-01-19T01:39:02.351Z,9.01
2023-01-19T01:41:31.419Z,8.96
2023-01-19T01:44:02.162Z,8.85
2023-01-19T01:46:32.645Z,7.91
2023-01-19T01:49:06.887Z,8.43
2023-01-19T01:51:41.846Z,8.59
2023-01-19T01:54:17.781Z,8.63
2023-01-19T01:56:49.895Z,8.78
2023-01-19T01:59:27.099Z,8.52
2023-01-19T02:02:16.476Z,8.34
2023-01-19T02:04:50.983Z,8.81
2023-01-19T02:07:45.252Z,8.58
2023-01-19T02:10:33.150Z,8.65
2023-01-19T02:13:21.725Z,9.13
2023-01-19T02:15:53.180Z,9.14
2023-01-19T02:18:25.143Z,9.14
2023-01-19T02:21:02.237Z,8.86
2023-01-19T02:23:40.938Z,9.14
2023-01-19T02:26:12.372Z,9.01
2023-01-19T02:28:45.139Z,8.83
2023-01-19T02:31:15.262Z,8.12
2023-01-19T02:33:44.355Z,8.59
2023-01-19T02:36:16.463Z,8.37
2023-01-19T02:38:53.981Z,8.44
2023-01-19T02:41:27.839Z,7.47
2023-01-19T02:43:58.741Z,7.68
2023-01-19T02:46:28.013Z,8.50
2023-01-19T02:49:00.447Z,8.61
2023-01-19T02:54:53.529Z,8.59
2023-01-19T02:57:43.781Z,8.24
2023-01-19T03:00:24.656Z,8.70
2023-01-19T03:03:10.674Z,8.07
2023-01-19T03:05:53.245Z,8.26
2023-01-19T03:08:34.327Z,8.03
2023-01-19T03:11:08.259Z,8.44
2023-01-19T03:13:43.270Z,8.26
2023-01-19T03:16:21.869Z,7.86
2023-01-19T03:18:55.091Z,7.61
2023-01-19T03:21:28.018Z,7.83
2023-01-19T03:24:03.169Z,7.88
2023-01-19T03:26:38.813Z,7.78
2023-01-19T03:29:09.962Z,7.51
2023-01-19T03:31:41.699Z,7.99
2023-01-19T03:34:15.000Z,8.45
2023-01-19T03:36:47.377Z,8.08
2023-01-19T03:39:23.089Z,8.02
2023-01-19T03:41:56.297Z,8.23
2023-01-19T03:44:27.259Z,8.14
2023-01-19T03:46:57.931Z,8.39
2023-01-19T03:49:27.522Z,8.19
2023-01-19T03:51:59.029Z,8.31
2023-01-19T03:54:28.923Z,7.82
2023-01-19T03:57:00.051Z,7.92
2023-01-19T03:59:31.210Z,7.93
2023-01-19T04:02:00.639Z,7.71
2023-01-19T04:04:30.084Z,7.87
2023-01-19T04:06:59.251Z,7.53
2023-01-19T04:09:28.422Z,7.78
2023-01-19T04:11:57.709Z,7.52
2023-01-19T04:14:29.459Z,7.85
2023-01-19T04:16:58.543Z,6.54
2023-01-19T04:19:27.557Z,7.40
2023-01-19T04:21:57.079Z,7.58
2023-01-19T04:24:26.549Z,8.11
2023-01-19T04:26:56.017Z,8.05
2023-01-19T04:29:25.555Z,8.16
2023-01-19T04:31:55.842Z,7.99
2023-01-19T04:34:24.833Z,7.97
2023-01-19T04:36:56.048Z,7.86
2023-01-19T04:39:25.464Z,8.12
2023-01-19T04:41:56.318Z,8.13
2023-01-19T04:44:25.492Z,8.02
2023-01-19T04:46:56.100Z,7.89
2023-01-19T04:49:25.162Z,7.56
2023-01-19T04:51:54.991Z,5.67
2023-01-19T04:54:24.148Z,4.90
2023-01-19T04:56:53.378Z,6.98
2023-01-19T04:59:22.411Z,7.24
2023-01-19T05:01:52.037Z,7.74
2023-01-19T05:04:22.603Z,7.86
2023-01-19T05:06:51.956Z,7.67
2023-01-19T05:09:21.021Z,7.75
2023-01-19T05:11:50.092Z,7.66
2023-01-19T05:14:19.435Z,8.03
2023-01-19T05:16:50.133Z,8.38
2023-01-19T05:19:23.973Z,8.26
2023-01-19T05:22:15.233Z,8.28
2023-01-19T05:24:57.006Z,8.01
2023-01-19T05:27:26.372Z,7.60
2023-01-19T05:29:55.312Z,8.83
2023-01-19T05:32:24.475Z,8.34
2023-01-19T05:34:56.481Z,8.34
2023-01-19T05:37:26.656Z,8.60
2023-01-19T05:39:56.451Z,8.27
2023-01-19T05:42:26.423Z,8.45
2023-01-19T05:44:58.443Z,8.31
2023-01-19T05:47:32.069Z,8.63
2023-01-19T05:50:02.848Z,7.75
2023-01-19T05:52:33.737Z,8.76
2023-01-19T05:55:03.002Z,8.67
2023-01-19T05:57:32.524Z,8.46
2023-01-19T06:00:05.113Z,8.07
2023-01-19T06:03:15.317Z,8.63
2023-01-19T06:05:46.405Z,8.05
2023-01-19T06:08:17.417Z,8.55
2023-01-19T06:10:46.673Z,8.17
2023-01-19T06:13:21.858Z,8.73
2023-01-19T06:16:08.419Z,8.55
2023-01-19T06:18:37.725Z,6.61
2023-01-19T06:21:12.456Z,6.33
2023-01-19T06:23:43.860Z,8.32
2023-01-19T06:26:16.685Z,7.91
2023-01-19T06:28:46.280Z,7.87
2023-01-19T06:31:18.756Z,7.57
2023-01-19T06:33:47.837Z,7.32
2023-01-19T06:36:18.349Z,6.88
2023-01-19T06:38:47.571Z,7.37
2023-01-19T06:41:17.079Z,7.98
2023-01-19T06:43:46.126Z,8.16
2023-01-19T06:46:15.413Z,7.93
2023-01-19T06:48:46.906Z,8.16
2023-01-19T06:51:17.659Z,7.73
2023-01-19T06:53:47.080Z,8.14
2023-01-19T06:56:19.450Z,8.25
2023-01-19T06:58:50.679Z,8.51
2023-01-19T07:01:20.451Z,8.26
2023-01-19T07:03:49.984Z,8.70
2023-01-19T07:06:23.760Z,8.57
2023-01-19T07:08:56.010Z,8.90
2023-01-19T07:11:32.291Z,9.29
2023-01-19T07:14:03.585Z,9.26
2023-01-19T07:16:35.632Z,8.65
2023-01-19T07:19:05.471Z,7.85
2023-01-19T07:21:39.170Z,8.14
2023-01-19T07:24:08.813Z,7.74
2023-01-19T10:15:57.669Z,8.03
2023-01-19T10:18:34.669Z,8.34
2023-01-19T10:21:11.463Z,8.13
2023-01-19T10:23:44.405Z,8.44
2023-01-19T10:26:18.179Z,8.57
2023-01-19T10:28:50.743Z,8.87
2023-01-19T10:31:25.145Z,8.89
2023-01-19T10:33:54.754Z,8.65
2023-01-19T10:36:30.109Z,9.02
2023-01-19T10:38:59.681Z,8.56
2023-01-19T10:41:37.614Z,8.84
2023-01-19T10:44:09.735Z,8.34
2023-01-19T10:46:45.110Z,8.89
2023-01-19T10:49:28.120Z,8.92
2023-01-19T10:52:00.867Z,8.75
2023-01-19T10:54:32.708Z,8.90
2023-01-19T10:57:05.092Z,8.45
2023-01-19T10:59:37.521Z,8.82
2023-01-19T11:02:27.172Z,8.58
2023-01-19T11:04:58.881Z,8.80
2023-01-19T11:07:32.608Z,8.61
2023-01-19T11:10:22.644Z,8.86
2023-01-19T11:13:02.423Z,9.05
2023-01-19T11:15:35.759Z,8.62
2023-01-19T11:18:08.001Z,8.96
2023-01-19T11:20:49.437Z,8.74
2023-01-19T11:23:26.103Z,8.57
2023-01-19T11:25:58.755Z,9.20
2023-01-19T11:28:31.519Z,8.51
2023-01-19T11:31:03.285Z,8.89
2023-01-19T11:33:39.035Z,9.28
2023-01-19T11:36:29.216Z,8.25
2023-01-19T11:39:00.890Z,8.69
2023-01-19T11:41:32.842Z,8.99
2023-01-19T11:44:11.247Z,9.25
2023-01-19T11:46:45.567Z,9.13
2023-01-19T11:49:23.522Z,9.23
2023-01-19T11:52:01.076Z,9.00
2023-01-19T11:54:37.121Z,9.34
2023-01-19T11:57:15.429Z,9.42
2023-01-19T11:59:55.073Z,9.19
2023-01-19T12:02:29.443Z,8.69
2023-01-19T12:05:06.168Z,9.50
2023-01-19T12:07:37.848Z,9.51
2023-01-19T12:10:22.178Z,9.32
2023-01-19T12:12:53.509Z,9.20
2023-01-19T12:15:28.044Z,9.50
2023-01-19T12:18:02.168Z,9.05
2023-01-19T12:20:38.504Z,8.23
2023-01-19T12:23:19.719Z,9.09
2023-01-19T12:26:02.858Z,9.46
2023-01-19T12:28:36.428Z,9.57
2023-01-19T12:31:06.605Z,9.34
2023-01-19T12:33:38.462Z,9.12
2023-01-19T12:36:14.369Z,9.31
2023-01-19T12:38:55.454Z,9.62
2023-01-19T12:41:31.480Z,9.46
2023-01-19T12:44:22.990Z,9.68
2023-01-19T12:46:55.107Z,9.76
2023-01-19T12:49:28.590Z,9.78
2023-01-19T12:52:25.383Z,9.89
2023-01-19T12:55:03.940Z,9.41
2023-01-19T12:57:36.454Z,8.96
2023-01-19T13:00:09.013Z,9.54
2023-01-19T13:02:48.162Z,9.97
2023-01-19T13:05:27.739Z,9.69
2023-01-19T13:08:21.302Z,9.83
2023-01-19T13:11:16.012Z,9.95
2023-01-19T13:14:07.323Z,9.58
2023-01-19T13:17:20.978Z,8.73
2023-01-19T13:19:58.730Z,8.93
2023-01-19T13:22:51.664Z,8.86
2023-01-19T13:25:31.285Z,8.74
2023-01-19T13:28:01.299Z,8.94
2023-01-19T13:30:31.581Z,8.83
2023-01-19T13:33:08.116Z,10.00
2023-01-19T13:35:37.628Z,10.06
2023-01-19T13:38:08.628Z,10.15
2023-01-19T13:40:40.029Z,10.41
2023-01-19T13:43:19.102Z,10.25
2023-01-19T13:45:53.455Z,10.36
2023-01-19T13:48:25.343Z,10.23
2023-01-19T13:51:02.422Z,9.27
2023-01-19T13:53:31.816Z,9.18
2023-01-19T13:56:10.923Z,8.73
2023-01-19T13:58:40.279Z,9.83
2023-01-19T14:01:22.026Z,9.13
2023-01-19T14:03:52.588Z,9.05
2023-01-19T14:06:34.209Z,8.92
2023-01-19T14:09:17.018Z,9.09
2023-01-19T14:12:05.365Z,9.09
2023-01-19T14:14:34.722Z,9.67
2023-01-19T14:17:04.159Z,10.01
2023-01-19T14:19:51.354Z,10.30
2023-01-19T14:22:21.128Z,10.15
2023-01-19T14:24:50.587Z,9.94
2023-01-19T14:27:24.409Z,10.19
2023-01-19T14:29:54.988Z,10.04
2023-01-19T14:32:27.982Z,10.17
2023-01-19T14:35:16.475Z,10.39
2023-01-19T14:37:52.071Z,10.44
2023-01-19T14:40:24.565Z,10.37
2023-01-19T14:42:57.680Z,10.33
2023-01-19T14:45:31.558Z,10.68
2023-01-19T14:48:03.931Z,10.80
2023-01-19T14:50:36.719Z,10.67
2023-01-19T14:53:08.634Z,10.25
2023-01-19T14:55:45.600Z,10.33
2023-01-19T14:58:18.382Z,10.58
2023-01-19T15:00:50.333Z,10.67
2023-01-19T15:03:20.304Z,10.38
2023-01-19T15:05:51.713Z,10.73
2023-01-19T15:08:26.558Z,10.47
2023-01-19T15:10:56.317Z,10.74
2023-01-19T15:13:28.567Z,10.86
2023-01-19T15:15:58.611Z,10.66
2023-01-19T15:18:28.882Z,10.66
2023-01-19T15:21:02.813Z,10.81
2023-01-19T15:23:32.591Z,10.91
2023-01-19T15:26:03.368Z,10.67
2023-01-19T15:28:34.264Z,9.29
2023-01-19T15:31:04.919Z,10.94
2023-01-19T15:33:34.772Z,11.16
2023-01-19T15:36:05.558Z,10.97
2023-01-19T15:38:34.929Z,10.83
2023-01-19T15:41:15.195Z,10.48
2023-01-19T15:43:46.328Z,10.30
2023-01-19T15:46:16.999Z,10.74
2023-01-19T15:48:46.780Z,10.86
2023-01-19T15:51:18.553Z,10.91
2023-01-19T15:53:51.168Z,10.67
2023-01-19T15:56:23.496Z,10.85
2023-01-19T17:29:28.571Z,9.88
2023-01-19T17:31:57.872Z,11.32
2023-01-19T17:34:27.071Z,11.78
2023-01-19T17:37:02.854Z,11.44
2023-01-19T17:39:32.076Z,11.56
2023-01-19T17:42:01.568Z,11.71
2023-01-19T17:44:32.246Z,11.58
2023-01-19T17:47:01.969Z,9.65
2023-01-19T17:49:31.632Z,10.73
2023-01-19T17:52:01.236Z,11.06
2023-01-19T17:54:30.938Z,11.07
2023-01-19T17:57:00.565Z,10.04
2023-01-19T17:59:32.753Z,11.24
2023-01-19T18:02:02.473Z,11.48
2023-01-19T18:04:32.324Z,9.91
2023-01-19T18:07:01.437Z,9.47
2023-01-19T18:09:31.644Z,11.05
2023-01-19T18:12:01.150Z,11.01
2023-01-19T18:14:31.846Z,9.69
2023-01-19T18:17:01.307Z,9.62
2023-01-19T18:19:30.761Z,9.49
2023-01-19T18:22:00.542Z,9.49
2023-01-19T18:24:29.939Z,9.53
2023-01-19T18:26:59.863Z,9.45
2023-01-19T18:29:29.406Z,9.42
2023-01-19T18:32:00.287Z,9.44
2023-01-19T18:34:29.521Z,9.30
2023-01-19T18:36:58.666Z,9.00
2023-01-19T18:39:27.937Z,9.17
2023-01-19T18:41:57.775Z,9.19
2023-01-19T18:44:27.458Z,8.99
2023-01-19T18:46:57.030Z,9.16
2023-01-19T18:49:27.941Z,9.03
2023-01-19T18:51:57.445Z,8.94
2023-01-19T18:54:27.179Z,8.94
2023-01-19T18:56:56.576Z,8.77
2023-01-19T18:59:25.993Z,8.55
2023-01-19T19:01:55.482Z,8.46
2023-01-19T19:04:25.152Z,8.59
2023-01-19T19:06:56.378Z,8.68
2023-01-19T19:09:26.000Z,8.62
2023-01-19T19:11:55.652Z,8.56
2023-01-19T19:14:24.920Z,8.35
2023-01-19T19:16:54.986Z,8.07
2023-01-19T19:19:24.835Z,8.33
2023-01-19T19:21:56.874Z,8.04
2023-01-19T19:24:26.491Z,9.08
2023-01-19T19:26:56.624Z,8.25
2023-01-19T19:29:26.394Z,8.29
2023-01-19T19:31:56.665Z,9.98
2023-01-19T19:34:26.310Z,9.92
2023-01-19T19:36:57.179Z,10.03
2023-01-19T19:39:26.457Z,9.94
2023-01-19T19:41:56.160Z,9.88
2023-01-19T19:44:25.803Z,10.22
2023-01-19T19:46:58.301Z,10.10
2023-01-19T19:49:28.442Z,10.07
2023-01-19T19:51:59.168Z,10.02
2023-01-19T19:54:28.707Z,8.34
2023-01-19T19:56:58.158Z,8.13
2023-01-19T19:59:27.648Z,8.07
2023-01-19T20:01:57.310Z,8.16
2023-01-19T20:04:28.223Z,7.87
2023-01-19T20:07:00.325Z,8.00
2023-01-19T20:09:30.475Z,9.46
2023-01-19T20:11:59.988Z,10.07
2023-01-19T20:14:29.779Z,10.15
2023-01-19T20:16:59.352Z,10.26
2023-01-19T20:19:29.763Z,10.13
2023-01-19T20:22:02.415Z,10.29
2023-01-19T20:24:31.507Z,10.45
2023-01-19T20:27:00.618Z,10.34
2023-01-19T20:29:30.715Z,10.31
2023-01-19T20:32:00.338Z,10.18
2023-01-19T20:34:33.392Z,10.44
2023-01-19T20:37:06.386Z,10.36
2023-01-19T20:39:37.467Z,10.26
2023-01-19T20:42:11.486Z,10.21
2023-01-19T20:44:41.461Z,9.94
2023-01-19T20:47:11.394Z,9.87
2023-01-19T20:49:40.781Z,10.10
2023-01-19T20:52:11.530Z,9.85
2023-01-19T20:54:41.947Z,9.85
2023-01-19T20:57:11.344Z,10.00
2023-01-19T20:59:41.464Z,9.59
2023-01-19T21:02:15.089Z,10.10
2023-01-19T21:04:45.010Z,10.06
2023-01-19T21:07:15.937Z,9.73
2023-01-19T21:09:46.235Z,9.93
2023-01-19T21:12:16.101Z,10.05
2023-01-19T21:14:46.053Z,10.15
2023-01-19T21:17:15.632Z,10.15
2023-01-19T21:19:45.355Z,10.22
2023-01-19T21:22:16.208Z,10.44
2023-01-19T21:24:45.676Z,10.31
2023-01-19T21:27:14.900Z,9.94
2023-01-19T21:29:43.971Z,10.13
2023-01-19T21:32:13.493Z,10.28
2023-01-19T21:34:45.257Z,10.07
2023-01-19T21:37:16.401Z,10.28
2023-01-19T21:39:46.386Z,10.22
2023-01-19T21:42:15.526Z,10.37
2023-01-19T21:44:44.632Z,10.30
2023-01-19T21:47:13.747Z,10.43
2023-01-19T21:49:43.449Z,10.25
2023-01-19T21:52:13.001Z,10.05
2023-01-19T21:54:43.710Z,9.98
2023-01-19T21:57:15.224Z,9.87
2023-01-19T21:59:44.473Z,10.18
2023-01-19T22:02:14.593Z,10.22
2023-01-19T22:04:44.230Z,9.94
2023-01-19T22:07:13.465Z,9.96
2023-01-19T22:09:44.387Z,10.18
2023-01-19T22:12:13.865Z,9.83
2023-01-19T22:14:43.013Z,10.20
2023-01-19T22:17:12.103Z,9.91
2023-01-19T22:19:41.403Z,10.21
2023-01-19T22:22:10.515Z,9.76
2023-01-19T22:24:39.984Z,9.89
2023-01-19T22:27:10.702Z,10.32
2023-01-19T22:29:39.806Z,9.94
2023-01-19T22:32:09.298Z,10.48
2023-01-19T22:34:38.772Z,10.19
2023-01-19T22:37:08.469Z,10.33
2023-01-19T22:39:38.321Z,10.22
2023-01-19T22:42:08.086Z,10.27
2023-01-19T22:44:38.602Z,10.53
2023-01-19T22:47:07.670Z,10.58
2023-01-19T22:49:36.981Z,10.74
2023-01-19T22:52:06.520Z,10.44
2023-01-19T22:54:35.977Z,10.54
2023-01-19T22:57:07.052Z,10.08
2023-01-19T22:59:36.250Z,10.16
2023-01-19T23:02:06.913Z,10.18
2023-01-19T23:04:36.310Z,10.05
2023-01-19T23:07:05.449Z,10.16
2023-01-19T23:09:35.371Z,10.41
2023-01-19T23:12:04.896Z,9.96
2023-01-19T23:14:33.941Z,10.43
2023-01-19T23:17:03.132Z,10.54
2023-01-19T23:19:33.674Z,10.24
2023-01-19T23:22:02.866Z,10.70
2023-01-19T23:24:32.169Z,10.25
2023-01-19T23:27:02.511Z,10.44
2023-01-19T23:29:31.691Z,10.44
2023-01-19T23:32:01.086Z,10.37
2023-01-19T23:34:30.166Z,10.52
2023-01-19T23:37:00.726Z,10.82
2023-01-19T23:39:30.137Z,9.33
2023-01-19T23:41:59.076Z,9.10
2023-01-19T23:44:28.149Z,9.00
2023-01-19T23:46:58.011Z,10.55
2023-01-19T23:49:27.672Z,10.96
2023-01-19T23:51:56.852Z,10.76
2023-01-19T23:54:27.262Z,11.09
2023-01-19T23:56:56.617Z,11.23
2023-01-19T23:59:25.790Z,11.33
